Time;durP1;ratioP1;P1;durP2;ratioP2;P2;SDS_P1;SDS_P2;PMS_P1;PMS_P2;Temp;Humidity;BMP_temperature;BMP_pressure;BME280_temperature;BME280_humidity;BME280_pressure;Samples;Min_cycle;Max_cycle;Signal;HPM_P1;HPM_P2
2021/03/18 00:02:09;;;;;;;22.00;11.40;;;;;;;8.03;54.24;99663.12;1796719;79;20213;-75
2021/03/18 00:04:38;;;;;;;;;;;;;;;8.00;54.28;99664.80;1799177;79;21082;-75
2021/03/18 00:07:05;;;;;;;19.40;11.00;;;;;;;8.00;54.29;99664.80;1796460;79;20228;-75
2021/03/18 00:09:33;;;;;;;30.40;12.55;;;;;;;7.99;54.34;99664.94;1776417;79;21201;-76
2021/03/18 00:12:02;;;;;;;23.05;11.95;;;;;;;8.00;54.35;99660.80;1796431;79;21149;-77
2021/03/18 00:14:28;;;;;;;23.65;13.13;;;;;;;8.02;54.30;99659.30;1796498;79;21057;-78
2021/03/18 00:16:57;;;;;;;21.25;12.37;;;;;;;8.02;54.27;99658.79;1796521;79;21070;-78
2021/03/18 00:19:25;;;;;;;27.75;14.53;;;;;;;8.03;54.25;99656.95;1796481;79;21121;-77
2021/03/18 00:21:52;;;;;;;26.52;13.48;;;;;;;8.03;54.24;99656.45;1796535;79;21129;-78
2021/03/18 00:24:19;;;;;;;;;;;;;;;8.03;54.18;99656.45;1799196;79;21160;-78
2021/03/18 00:26:46;;;;;;;21.17;11.05;;;;;;;8.04;54.17;99651.95;1796496;79;20478;-76
2021/03/18 00:29:13;;;;;;;24.27;12.03;;;;;;;8.02;54.18;99654.79;1796617;79;21153;-77
2021/03/18 00:31:42;;;;;;;28.15;11.95;;;;;;;8.02;54.24;99652.13;1793478;79;21121;-76
2021/03/18 00:34:09;;;;;;;24.63;12.20;;;;;;;8.01;54.25;99653.13;1796623;79;21073;-76
2021/03/18 00:36:36;;;;;;;22.75;13.28;;;;;;;8.03;54.27;99661.79;1796568;79;21081;-75
2021/03/18 00:39:06;;;;;;;;;;;;;;;8.01;54.23;99661.12;1800806;79;21138;-76
2021/03/18 00:41:33;;;;;;;26.97;13.18;;;;;;;7.99;54.25;99660.44;1798468;79;20216;-77
2021/03/18 00:44:00;;;;;;;;;;;;;;;7.97;54.32;99664.27;1799312;79;21055;-76
2021/03/18 00:46:27;;;;;;;25.88;12.88;;;;;;;7.96;54.36;99660.78;1796528;78;20275;-77
2021/03/18 00:48:55;;;;;;;20.50;11.78;;;;;;;7.97;54.38;99662.44;1796493;79;21073;-77
2021/03/18 00:51:24;;;;;;;21.15;12.23;;;;;;;8.00;54.41;99664.80;1796424;79;21185;-76
2021/03/18 00:53:53;;;;;;;27.25;13.03;;;;;;;8.02;54.32;99661.45;1796562;79;21109;-75
2021/03/18 00:56:21;;;;;;;23.07;11.48;;;;;;;8.04;54.28;99664.81;1796502;79;21415;-76
2021/03/18 00:58:54;;;;;;;22.87;11.85;;;;;;;8.04;54.27;99654.15;1796399;79;21141;-75
2021/03/18 01:01:25;;;;;;;24.20;12.05;;;;;;;8.05;54.24;99667.81;1776907;79;21193;-75
2021/03/18 01:03:52;;;;;;;20.75;10.93;;;;;;;8.03;54.18;99663.63;1776568;79;21129;-78
2021/03/18 01:06:29;;;;;;;20.75;11.20;;;;;;;8.03;54.16;99663.12;1796432;79;21636;-76
2021/03/18 01:08:58;;;;;;;26.77;12.43;;;;;;;8.02;54.16;99660.63;1813902;77;21803;-76
2021/03/18 01:11:33;;;;;;;26.05;12.98;;;;;;;8.02;54.18;99657.95;1815664;77;21487;-76
2021/03/18 01:14:12;;;;;;;25.75;13.43;;;;;;;8.01;54.19;99666.46;1778455;80;21152;-75
2021/03/18 01:16:49;;;;;;;23.52;12.88;;;;;;;8.03;54.23;99656.45;1795197;79;21099;-76
2021/03/18 01:19:17;;;;;;;25.02;12.80;;;;;;;8.04;54.14;99657.28;1780017;80;21180;-79
2021/03/18 01:21:48;;;;;;;29.60;13.78;;;;;;;8.03;54.14;99658.29;1764819;79;21151;-75
2021/03/18 01:24:18;;;;;;;24.15;11.15;;;;;;;8.04;54.14;99663.48;1779928;80;21575;-77
2021/03/18 01:26:45;;;;;;;24.87;12.70;;;;;;;8.02;54.18;99660.13;1766071;79;21084;-76
2021/03/18 01:29:13;;;;;;;;;;;;;;;8.04;54.15;99668.81;1782713;80;21153;-76
2021/03/18 01:31:42;;;;;;;33.83;14.60;;;;;;;8.04;54.08;99666.15;1758901;81;20290;-76
2021/03/18 01:34:09;;;;;;;30.57;14.70;;;;;;;8.01;54.12;99667.80;1758692;81;21105;-78
2021/03/18 01:36:38;;;;;;;33.65;15.48;;;;;;;8.01;54.14;99661.62;1758189;80;21665;-76
2021/03/18 01:39:07;;;;;;;29.92;15.53;;;;;;;8.01;54.18;99672.30;1758785;81;21098;-75
2021/03/18 01:41:36;;;;;;;32.25;15.78;;;;;;;7.99;54.20;99667.10;1758706;81;21133;-77
2021/03/18 01:44:05;;;;;;;25.80;13.40;;;;;;;8.01;54.10;99663.80;1758671;81;22161;-75
2021/03/18 01:46:33;;;;;;;31.68;15.00;;;;;;;8.01;54.12;99671.80;1705421;81;21133;-76
2021/03/18 01:49:03;;;;;;;34.10;15.93;;;;;;;8.02;54.13;99673.45;1758824;81;21176;-75
2021/03/18 01:51:31;;;;;;;36.38;16.48;;;;;;;8.03;54.13;99668.95;1758732;81;21168;-76
2021/03/18 01:53:58;;;;;;;37.98;16.52;;;;;;;8.02;54.15;99661.45;1758690;81;21109;-78
2021/03/18 01:56:27;;;;;;;33.45;15.18;;;;;;;8.00;54.16;99659.46;1728969;81;21043;-77
2021/03/18 01:58:54;;;;;;;33.80;15.40;;;;;;;8.01;54.20;99663.80;1824127;77;21596;-75
2021/03/18 02:01:21;;;;;;;26.90;15.28;;;;;;;8.01;54.16;99667.80;1774491;79;21576;-78
2021/03/18 02:03:50;;;;;;;28.55;14.60;;;;;;;8.01;54.14;99669.62;1796514;78;21072;-77
2021/03/18 02:06:18;;;;;;;33.98;17.05;;;;;;;8.00;54.14;99671.97;1796337;79;21081;-76
2021/03/18 02:08:46;;;;;;;29.12;15.40;;;;;;;7.99;54.14;99668.44;1796301;79;21128;-75
2021/03/18 02:11:13;;;;;;;33.15;16.15;;;;;;;7.98;54.14;99666.77;1796379;79;21136;-76
2021/03/18 02:13:40;;;;;;;;;;;;;;;7.98;54.11;99662.77;1798997;79;21100;-76
2021/03/18 02:16:10;;;;;;;32.20;16.65;;;;;;;8.16;53.75;99663.17;1796703;79;20499;-76
2021/03/18 02:19:01;;;;;;;28.67;15.48;;;;;;;8.20;53.51;99659.19;1796369;79;21093;-76
2021/03/18 02:22:23;;;;;;;24.02;15.08;;;;;;;8.42;53.09;99658.61;1796482;79;21504;-76
2021/03/18 02:25:07;;;;;;;30.32;17.17;;;;;;;8.55;52.66;99657.63;1796491;79;21049;-76
2021/03/18 02:28:12;;;;;;;29.57;16.27;;;;;;;8.03;53.72;99661.79;1796344;79;21705;-76
2021/03/18 02:30:57;;;;;;;33.13;16.35;;;;;;;7.99;53.87;99662.27;1755457;78;21602;-76
2021/03/18 02:33:59;;;;;;;24.05;16.73;;;;;;;7.92;54.03;99667.42;1796129;79;21104;-75
2021/03/18 02:36:30;;;;;;;28.23;15.05;;;;;;;7.90;54.05;99666.73;1795376;79;21547;-76
2021/03/18 02:39:00;;;;;;;23.65;15.30;;;;;;;7.90;54.10;99666.73;1795583;79;21697;-75
2021/03/18 02:41:31;;;;;;;30.68;18.35;;;;;;;7.92;54.10;99675.42;1795254;79;21489;-77
2021/03/18 02:44:10;;;;;;;27.95;17.45;;;;;;;7.95;54.12;99679.12;1794376;79;21171;-75
2021/03/18 02:46:41;;;;;;;29.85;18.37;;;;;;;7.97;54.02;99675.77;1794951;79;21172;-75
2021/03/18 02:49:11;;;;;;;28.92;18.40;;;;;;;7.98;53.96;99676.11;1830324;77;21113;-77
2021/03/18 02:51:41;;;;;;;34.58;19.73;;;;;;;7.97;53.91;99678.44;1818984;77;21081;-76
2021/03/18 02:54:11;;;;;;;33.75;18.95;;;;;;;7.94;53.94;99682.75;1848791;77;21615;-75
2021/03/18 02:56:43;;;;;;;37.78;19.32;;;;;;;7.93;53.92;99685.09;1848868;77;21572;-75
2021/03/18 02:59:13;;;;;;;30.92;19.30;;;;;;;7.93;53.97;99686.92;1849275;77;21078;-75
2021/03/18 03:01:44;;;;;;;38.92;20.20;;;;;;;7.93;53.99;99682.42;1849249;77;21133;-75
2021/03/18 03:04:11;;;;;;;43.20;21.95;;;;;;;7.94;54.04;99685.42;1819383;77;21152;-75
2021/03/18 03:06:39;;;;;;;;;;;;;;;7.95;54.01;99685.78;1852167;77;21062;-77
2021/03/18 03:09:07;;;;;;;41.55;22.48;;;;;;;7.95;53.98;99685.78;1849341;77;26863;-75
2021/03/18 03:11:36;;;;;;;44.90;24.27;;;;;;;7.94;54.00;99693.42;1819226;77;21137;-75
2021/03/18 03:14:03;;;;;;;43.08;22.02;;;;;;;7.93;53.99;99692.25;1849200;77;21128;-75
2021/03/18 03:16:30;;;;;;;;;;;;;;;7.91;54.01;99688.93;1753000;77;21030;-77
2021/03/18 03:18:57;;;;;;;48.33;21.82;;;;;;;7.92;54.06;99694.59;1849398;77;20480;-76
2021/03/18 03:21:24;;;;;;;;;;;;;;;7.91;54.07;99702.27;1852216;77;21592;-77
2021/03/18 03:23:52;;;;;;;55.33;22.87;;;;;;;7.93;54.11;99701.59;1849405;77;20213;-78
2021/03/18 03:26:23;;;;;;;;;;;;;;;7.92;54.12;99694.09;1822065;77;21657;-75
2021/03/18 03:28:50;;;;;;;58.00;24.15;;;;;;;7.93;54.09;99698.42;1818525;77;20218;-77
2021/03/18 03:31:18;;;;;;;65.97;25.72;;;;;;;7.92;54.10;99694.09;1843168;77;21079;-75
2021/03/18 03:33:47;;;;;;;65.70;26.35;;;;;;;7.90;54.07;99700.06;1811782;79;21091;-75
2021/03/18 03:36:15;;;;;;;50.92;23.30;;;;;;;7.90;54.09;99706.73;1815947;79;21131;-75
2021/03/18 03:38:42;;;;;;;65.78;22.82;;;;;;;7.89;54.03;99711.73;1816062;79;21139;-74
2021/03/18 03:41:10;;;;;;;58.28;23.77;;;;;;;7.90;54.04;99704.06;1816024;79;21075;-75
2021/03/18 03:43:38;;;;;;;72.87;25.52;;;;;;;7.92;54.03;99705.26;1815916;79;21605;-75
2021/03/18 03:46:06;;;;;;;64.50;23.30;;;;;;;7.88;54.06;99701.56;1816528;79;21099;-73
2021/03/18 03:48:34;;;;;;;66.92;24.47;;;;;;;7.93;54.09;99713.59;1818662;79;21131;-74
2021/03/18 03:51:03;;;;;;;58.30;25.35;;;;;;;7.91;54.07;99708.42;1816840;78;21131;-76
2021/03/18 03:53:52;;;;;;;70.03;26.12;;;;;;;7.90;54.00;99717.39;1816314;79;21052;-76
2021/03/18 03:57:04;;;;;;;58.90;23.42;;;;;;;7.88;54.00;99716.73;1816230;79;21729;-78
2021/03/18 03:59:37;;;;;;;60.90;23.95;;;;;;;7.86;54.08;99713.41;1816115;79;21589;-77
2021/03/18 04:02:04;;;;;;;57.85;23.30;;;;;;;7.86;54.03;99719.56;1816243;79;21127;-75
2021/03/18 04:04:36;;;;;;;66.65;24.77;;;;;;;7.90;54.04;99722.73;1816208;79;21658;-76
2021/03/18 04:07:06;;;;;;;66.28;23.65;;;;;;;7.91;54.03;99728.42;1816242;79;21121;-77
2021/03/18 04:09:33;;;;;;;61.13;22.82;;;;;;;7.92;53.98;99736.75;1816258;79;21126;-78
2021/03/18 04:12:01;;;;;;;62.20;23.30;;;;;;;7.93;53.95;99735.75;1816076;79;21158;-77
2021/03/18 04:14:31;;;;;;;;;;;;;;;7.93;53.91;99735.75;1736543;79;21076;-76
2021/03/18 04:17:02;;;;;;;87.37;24.00;;;;;;;7.95;53.88;99736.45;1816207;79;20220;-77
2021/03/18 04:19:29;;;;;;;64.92;21.90;;;;;;;7.93;53.90;99729.59;1816032;79;21087;-77
2021/03/18 04:21:56;;;;;;;72.70;21.93;;;;;;;7.92;53.91;99731.92;1819832;77;21050;-76
2021/03/18 04:24:24;;;;;;;66.95;22.93;;;;;;;7.94;53.88;99735.25;1845740;77;21114;-78
2021/03/18 04:26:53;;;;;;;78.00;24.40;;;;;;;7.94;53.88;99737.41;1846163;77;21126;-78
2021/03/18 04:29:20;;;;;;;75.47;23.30;;;;;;;7.95;53.82;99736.45;1836866;78;21161;-77
2021/03/18 04:31:47;;;;;;;84.92;25.00;;;;;;;7.95;53.81;99740.45;1838951;77;21627;-77
2021/03/18 04:34:17;;;;;;;80.92;23.90;;;;;;;7.95;53.81;99739.58;1790461;79;21668;-76
2021/03/18 04:36:45;;;;;;;76.80;25.17;;;;;;;7.95;53.86;99741.78;1769365;81;21193;-77
2021/03/18 04:39:12;;;;;;;;;;;;;;;7.95;53.79;99743.11;1729426;82;21199;-76
2021/03/18 04:41:40;;;;;;;77.00;22.20;;;;;;;7.93;53.82;99742.92;1766472;79;20266;-78
2021/03/18 04:44:09;;;;;;;77.60;22.87;;;;;;;7.92;53.88;99753.25;1767547;79;21277;-78
2021/03/18 04:46:37;;;;;;;71.50;21.40;;;;;;;7.94;53.92;99751.25;1806383;79;21086;-77
2021/03/18 04:49:04;;;;;;;76.15;23.75;;;;;;;7.96;53.92;99754.61;1765825;79;21699;-77
2021/03/18 04:51:31;;;;;;;;;;;;;;;7.98;53.88;99754.78;1808235;79;21500;-76
2021/03/18 04:53:58;;;;;;;77.72;22.98;;;;;;;7.98;53.76;99756.61;1779034;79;20254;-76
2021/03/18 04:56:26;;;;;;;82.53;22.05;;;;;;;7.97;53.82;99762.45;1743967;81;21156;-75
2021/03/18 04:58:54;;;;;;;83.42;22.67;;;;;;;7.98;53.78;99765.94;1790666;79;21182;-76
2021/03/18 05:01:22;;;;;;;69.77;20.35;;;;;;;7.97;53.72;99766.95;1789500;79;22274;-74
2021/03/18 05:03:51;;;;;;;71.62;21.15;;;;;;;7.96;53.79;99769.28;1772912;80;21207;-76
2021/03/18 05:06:23;;;;;;;79.40;21.97;;;;;;;7.95;53.72;99767.11;1793807;79;21835;-75
2021/03/18 05:08:52;;;;;;;71.57;21.48;;;;;;;7.95;53.74;99771.11;1787090;79;21426;-75
2021/03/18 05:11:21;;;;;;;85.77;20.62;;;;;;;7.94;53.77;99776.58;1772354;80;21253;-77
2021/03/18 05:13:49;;;;;;;81.28;21.30;;;;;;;7.90;53.75;99777.39;1813936;79;21181;-76
2021/03/18 05:16:17;;;;;;;79.35;20.80;;;;;;;7.88;53.79;99781.56;1795325;77;21213;-76
2021/03/18 05:18:44;;;;;;;70.92;20.40;;;;;;;7.95;53.62;99785.78;1842897;77;21232;-76
2021/03/18 05:21:11;;;;;;;;;;;;;;;7.97;53.50;99782.45;1840291;77;21178;-77
2021/03/18 05:23:38;;;;;;;69.70;19.02;;;;;;;7.98;53.43;99786.78;1836562;77;20538;-76
2021/03/18 05:26:06;;;;;;;68.47;18.20;;;;;;;7.95;53.44;99792.45;1824010;77;21157;-77
2021/03/18 05:28:35;;;;;;;90.90;19.52;;;;;;;7.95;53.43;99791.11;1822423;77;21180;-76
2021/03/18 05:31:07;;;;;;;77.85;16.20;;;;;;;7.94;53.37;99792.58;1828886;77;21164;-77
2021/03/18 05:33:34;;;;;;;80.67;16.45;;;;;;;7.92;53.32;99796.75;1792951;79;21266;-78
2021/03/18 05:36:01;;;;;;;87.72;16.77;;;;;;;7.89;53.28;99802.39;1825653;77;21194;-75
2021/03/18 05:38:31;;;;;;;85.35;15.93;;;;;;;7.84;53.24;99806.86;1832919;77;21203;-79
2021/03/18 05:40:58;;;;;;;54.85;12.07;;;;;;;7.81;53.29;99803.66;1847026;77;21188;-77
2021/03/18 05:43:26;;;;;;;60.45;11.97;;;;;;;7.75;53.27;99811.80;1837928;77;21173;-74
2021/03/18 05:45:55;;;;;;;59.08;11.70;;;;;;;7.72;53.36;99809.46;1835955;77;21157;-76
2021/03/18 05:48:22;;;;;;;60.30;12.25;;;;;;;7.69;53.46;99813.77;1842838;76;21193;-76
2021/03/18 05:50:51;;;;;;;50.60;11.30;;;;;;;7.69;53.50;99811.59;1820222;77;21220;-75
2021/03/18 05:53:18;;;;;;;62.53;11.40;;;;;;;7.69;53.50;99816.92;1825846;77;21194;-76
2021/03/18 05:55:51;;;;;;;53.40;12.88;;;;;;;7.67;53.49;99817.56;1795152;79;21182;-76
2021/03/18 05:58:21;;;;;;;46.30;12.30;;;;;;;7.65;53.56;99819.06;1794837;79;21504;-76
2021/03/18 06:00:50;;;;;;;55.52;11.80;;;;;;;7.65;53.62;99827.55;1824110;77;21193;-77
2021/03/18 06:03:18;;;;;;;56.73;13.08;;;;;;;7.68;53.76;99828.09;1827887;77;21534;-75
2021/03/18 06:05:48;;;;;;;57.15;13.50;;;;;;;7.70;53.76;99830.59;1809250;77;21193;-76
2021/03/18 06:08:15;;;;;;;54.60;14.90;;;;;;;7.71;53.84;99829.59;1822961;77;21189;-75
2021/03/18 06:10:42;;;;;;;;;;;;;;;7.74;53.91;99827.95;1820863;77;21209;-75
2021/03/18 06:13:09;;;;;;;52.10;15.68;;;;;;;7.78;54.03;99830.66;1827874;77;20298;-76
2021/03/18 06:15:36;;;;;;;;;;;;;;;7.79;54.07;99834.98;1770305;79;21206;-75
2021/03/18 06:18:06;;;;;;;61.08;17.15;;;;;;;7.82;54.12;99834.19;1747635;80;20308;-77
2021/03/18 06:20:33;;;;;;;68.02;16.02;;;;;;;7.86;54.17;99840.05;1717311;81;21264;-77
2021/03/18 06:23:00;;;;;;;63.15;17.15;;;;;;;7.91;54.19;99838.25;1762802;80;21165;-75
2021/03/18 06:25:34;;;;;;;59.88;16.52;;;;;;;7.96;54.05;99838.11;1769278;77;21102;-75
2021/03/18 06:28:28;;;;;;;71.28;16.15;;;;;;;8.00;54.08;99832.81;1821892;77;21118;-76
2021/03/18 06:31:11;;;;;;;49.08;15.65;;;;;;;8.03;54.09;99835.64;1800533;77;21138;-76
2021/03/18 06:33:50;;;;;;;50.45;13.10;;;;;;;8.07;53.96;99840.51;1822413;77;21140;-74
2021/03/18 06:36:30;;;;;;;54.00;14.25;;;;;;;8.09;53.82;99844.37;1821891;76;21121;-74
2021/03/18 06:39:10;;;;;;;55.55;13.75;;;;;;;8.12;53.70;99840.03;1820556;76;21174;-76
2021/03/18 06:41:45;;;;;;;54.45;15.03;;;;;;;8.14;53.60;99849.56;1823317;77;21125;-75
2021/03/18 06:44:22;;;;;;;65.75;14.78;;;;;;;8.16;53.39;99845.90;1818395;76;21158;-76
2021/03/18 06:46:51;;;;;;;52.83;14.18;;;;;;;8.14;53.27;99845.56;1822468;76;21113;-74
2021/03/18 06:49:21;;;;;;;52.53;14.10;;;;;;;8.14;53.28;99847.40;1819569;77;21114;-75
2021/03/18 06:52:09;;;;;;;40.92;12.98;;;;;;;8.14;53.24;99848.23;1818529;77;21115;-76
2021/03/18 06:54:41;;;;;;;48.08;12.90;;;;;;;8.11;53.28;99846.37;1821871;77;21594;-76
2021/03/18 06:57:15;;;;;;;53.85;13.68;;;;;;;8.01;53.44;99852.31;1824011;76;21523;-76
2021/03/18 06:59:44;;;;;;;43.48;13.60;;;;;;;8.00;53.54;99843.48;1825583;76;21192;-74
2021/03/18 07:02:14;;;;;;;53.83;13.85;;;;;;;8.00;53.56;99853.31;1823608;77;21121;-75
2021/03/18 07:04:47;;;;;;;58.20;14.05;;;;;;;8.01;53.42;99853.14;1819419;77;21113;-75
2021/03/18 07:07:17;;;;;;;56.53;16.05;;;;;;;8.00;53.43;99849.31;1821858;77;21131;-74
2021/03/18 07:09:48;;;;;;;54.85;14.93;;;;;;;7.99;53.41;99849.78;1808925;77;39168;-73
2021/03/18 07:12:17;;;;;;;51.15;13.88;;;;;;;7.99;53.44;99848.45;1822663;77;22216;-74
2021/03/18 07:14:48;;;;;;;39.78;12.88;;;;;;;8.01;53.48;99849.14;1826479;76;21106;-74
2021/03/18 07:17:32;;;;;;;47.60;14.35;;;;;;;8.01;53.28;99854.48;1782993;79;21122;-75
2021/03/18 07:20:19;;;;;;;46.08;14.23;;;;;;;7.99;53.49;99855.11;1825331;77;21128;-75
2021/03/18 07:22:56;;;;;;;51.88;13.83;;;;;;;7.99;53.47;99859.12;1828013;77;21117;-74
2021/03/18 07:25:27;;;;;;;57.55;16.32;;;;;;;8.01;53.72;99865.15;1820516;77;21146;-75
2021/03/18 07:28:01;;;;;;;63.92;15.78;;;;;;;8.06;53.79;99868.68;1817151;77;21085;-74
2021/03/18 07:30:36;;;;;;;41.55;12.63;;;;;;;8.09;53.92;99866.55;1754975;79;21108;-75
2021/03/18 07:33:05;;;;;;;47.33;12.28;;;;;;;8.13;53.67;99865.23;1828093;77;21132;-75
2021/03/18 07:35:35;;;;;;;58.70;14.23;;;;;;;8.19;53.87;99866.94;1822674;77;21147;-76
2021/03/18 07:38:06;;;;;;;54.95;14.38;;;;;;;8.22;53.66;99866.13;1822214;77;21086;-77
2021/03/18 07:40:34;;;;;;;69.35;14.38;;;;;;;8.24;53.42;99866.80;1822408;77;21125;-74
2021/03/18 07:43:02;;;;;;;46.83;13.18;;;;;;;8.24;53.49;99864.63;1795582;77;21262;-75
2021/03/18 07:45:29;;;;;;;47.00;13.80;;;;;;;8.26;53.34;99862.63;1819875;77;21579;-76
2021/03/18 07:47:57;;;;;;;48.98;15.72;;;;;;;8.26;53.30;99867.96;1819974;77;21216;-74
2021/03/18 07:50:34;;;;;;;50.63;13.32;;;;;;;8.27;53.46;99862.98;1792988;77;21195;-75
2021/03/18 07:53:05;;;;;;;53.23;14.60;;;;;;;8.31;53.48;99860.31;1781094;79;21399;-77
2021/03/18 07:55:33;;;;;;;54.48;15.43;;;;;;;8.33;53.46;99863.18;1722078;81;21134;-76
2021/03/18 07:58:04;;;;;;;48.65;13.30;;;;;;;8.36;53.61;99863.37;1759356;80;21145;-75
2021/03/18 08:00:33;;;;;;;52.45;14.87;;;;;;;8.40;53.47;99862.06;1745346;81;21158;-75
2021/03/18 08:03:26;;;;;;;50.95;14.07;;;;;;;8.42;53.54;99857.42;1765925;80;21190;-75
2021/03/18 08:05:53;;;;;;;56.00;12.65;;;;;;;8.46;53.50;99860.12;1765494;80;21718;-74
2021/03/18 08:08:36;;;;;;;49.55;13.48;;;;;;;8.48;53.22;99860.78;1762652;80;21106;-75
2021/03/18 08:11:10;;;;;;;43.25;11.70;;;;;;;8.49;53.16;99865.62;1796087;77;21088;-76
2021/03/18 08:13:40;;;;;;;48.40;13.75;;;;;;;8.50;53.12;99865.48;1822626;77;21652;-75
2021/03/18 08:16:30;;;;;;;54.85;13.70;;;;;;;8.52;53.03;99864.80;1822875;77;21103;-75
2021/03/18 08:19:00;;;;;;;64.62;15.43;;;;;;;8.54;52.91;99860.63;1822612;77;21111;-74
2021/03/18 08:21:43;;;;;;;58.70;14.30;;;;;;;8.56;52.67;99866.16;1820761;77;21532;-74
2021/03/18 08:24:22;;;;;;;59.25;14.30;;;;;;;8.56;52.62;99860.83;1826708;77;21598;-74
2021/03/18 08:26:54;;;;;;;60.73;13.85;;;;;;;8.59;52.45;99857.84;1796164;77;21096;-76
2021/03/18 08:29:43;;;;;;;51.58;13.03;;;;;;;8.62;52.50;99858.00;1824497;77;21394;-74
2021/03/18 08:32:13;;;;;;;41.85;12.80;;;;;;;8.66;52.64;99854.52;1818635;77;21107;-74
2021/03/18 08:34:54;;;;;;;43.28;13.38;;;;;;;8.74;52.59;99861.23;1821758;77;21112;-74
2021/03/18 08:37:39;;;;;;;58.28;16.77;;;;;;;8.79;52.38;99853.58;1827277;76;21125;-75
2021/03/18 08:40:13;;;;;;;67.87;19.00;;;;;;;8.85;52.11;99852.92;1780502;79;21143;-76
2021/03/18 08:42:40;;;;;;;66.35;17.37;;;;;;;8.90;52.47;99847.92;1744999;81;21126;-75
2021/03/18 08:45:12;;;;;;;68.25;15.93;;;;;;;8.96;52.51;99853.14;1748008;80;22089;-78
2021/03/18 08:47:45;;;;;;;64.42;14.05;;;;;;;9.02;52.23;99851.98;1761833;80;21121;-76
2021/03/18 08:50:27;;;;;;;59.93;14.00;;;;;;;9.06;51.85;99850.66;1765544;80;21145;-75
2021/03/18 08:53:03;;;;;;;52.75;13.30;;;;;;;9.05;51.39;99855.66;1828048;76;21081;-77
2021/03/18 08:55:52;;;;;;;44.08;13.80;;;;;;;9.05;51.14;99856.17;1799431;76;21132;-74
2021/03/18 08:58:20;;;;;;;59.15;14.75;;;;;;;9.00;51.70;99862.00;1821388;77;21674;-74
2021/03/18 09:00:47;;;;;;;53.48;15.00;;;;;;;9.06;51.64;99861.34;1823602;76;21134;-75
2021/03/18 09:04:06;;;;;;;58.00;16.73;;;;;;;9.15;51.66;99859.53;1828004;77;21157;-76
2021/03/18 09:06:50;;;;;;;50.35;15.08;;;;;;;9.24;51.60;99864.39;1825542;77;21652;-77
2021/03/18 09:09:23;;;;;;;52.38;14.45;;;;;;;9.35;51.30;99862.73;1829537;77;21128;-75
2021/03/18 09:12:08;;;;;;;43.95;12.90;;;;;;;9.42;51.25;99860.25;1823379;76;21129;-74
2021/03/18 09:14:40;;;;;;;51.73;12.25;;;;;;;9.48;51.00;99859.06;1822566;77;21086;-74
2021/03/18 09:17:32;;;;;;;;;;;;;;;;;;;;;
2021/03/18 09:20:13;;;;;;;48.20;12.33;;;;;;;9.61;50.25;99874.13;1824347;77;22684;-76
2021/03/18 09:22:53;;;;;;;50.45;11.80;;;;;;;9.56;49.74;99868.44;1799992;78;21140;-74
2021/03/18 09:25:33;;;;;;;52.48;12.33;;;;;;;9.53;49.34;99871.44;1814752;77;21141;-74
2021/03/18 09:28:09;;;;;;;;;;;;;;;9.50;49.71;99870.45;1812878;78;21136;-75
2021/03/18 09:30:54;;;;;;;57.78;12.88;;;;;;;9.51;49.54;99882.81;1808083;78;20232;-74
2021/03/18 09:33:33;;;;;;;54.20;14.40;;;;;;;9.48;49.87;99878.28;1810828;78;21093;-76
2021/03/18 09:36:29;;;;;;;55.43;13.98;;;;;;;9.50;49.92;99881.65;1803603;77;21631;-75
2021/03/18 09:39:13;;;;;;;40.48;11.70;;;;;;;9.52;50.13;99879.13;1778821;78;21180;-74
2021/03/18 09:42:15;;;;;;;47.67;12.05;;;;;;;9.55;50.25;99880.64;1804778;78;21158;-75
2021/03/18 09:44:44;;;;;;;59.73;12.13;;;;;;;9.58;50.02;99883.83;1808951;77;21134;-75
2021/03/18 09:47:23;;;;;;;54.93;11.65;;;;;;;9.57;49.77;99880.80;1811899;78;21097;-76
2021/03/18 09:50:01;;;;;;;42.17;12.95;;;;;;;9.58;49.79;99882.50;1773142;78;21088;-76
2021/03/18 09:53:09;;;;;;;54.23;12.78;;;;;;;9.60;49.82;99876.47;1863900;75;23354;-75
2021/03/18 09:56:07;;;;;;;52.67;12.28;;;;;;;9.57;49.86;99877.29;1809445;75;21451;-75
2021/03/18 09:58:41;;;;;;;53.10;12.37;;;;;;;9.57;49.60;99882.14;1799760;77;21247;-75
2021/03/18 10:01:26;;;;;;;56.48;13.48;;;;;;;9.55;49.84;99886.83;1837127;75;21147;-74
2021/03/18 10:04:18;;;;;;;51.88;13.95;;;;;;;9.53;49.63;99886.14;1838088;75;20984;-77
2021/03/18 10:06:58;;;;;;;55.28;13.53;;;;;;;9.56;50.00;99889.83;1841529;75;21104;-75
2021/03/18 10:09:36;;;;;;;45.92;12.60;;;;;;;9.61;50.44;99892.00;1840182;75;22010;-75
2021/03/18 10:12:22;;;;;;;41.50;12.75;;;;;;;9.63;50.75;99896.20;1843446;75;21939;-76
2021/03/18 10:15:04;;;;;;;43.10;14.33;;;;;;;9.69;50.81;99888.01;1839784;75;21175;-73
2021/03/18 10:17:44;;;;;;;59.27;13.95;;;;;;;9.73;50.60;99892.53;1829506;75;21107;-76
2021/03/18 10:20:33;;;;;;;52.15;12.58;;;;;;;9.73;50.66;99897.38;1840872;75;21106;-76
2021/03/18 10:23:15;;;;;;;60.00;14.35;;;;;;;9.72;50.45;99897.52;1839579;75;21091;-74
2021/03/18 10:25:50;;;;;;;62.27;14.30;;;;;;;9.71;50.36;99906.05;1812119;77;21143;-74
2021/03/18 10:28:33;;;;;;;50.90;11.73;;;;;;;9.71;50.62;99901.20;1836461;77;21115;-76
2021/03/18 10:31:15;;;;;;;54.48;14.15;;;;;;;9.71;50.26;99899.86;1810881;77;21141;-76
2021/03/18 10:33:52;;;;;;;59.75;13.18;;;;;;;9.66;50.33;99898.52;1801046;76;21153;-75
2021/03/18 10:36:50;;;;;;;42.85;11.70;;;;;;;9.64;50.05;99893.02;1828038;76;21137;-74
2021/03/18 10:39:30;;;;;;;49.65;13.13;;;;;;;9.56;50.01;99891.16;1827442;76;21601;-74
2021/03/18 10:42:41;;;;;;;50.00;13.22;;;;;;;9.55;50.27;99900.20;1756980;77;21121;-73
2021/03/18 10:45:24;;;;;;;61.28;12.98;;;;;;;9.58;50.35;99897.67;1826633;76;21182;-74
2021/03/18 10:48:03;;;;;;;46.63;12.55;;;;;;;9.61;50.12;99898.69;1799983;77;21688;-75
2021/03/18 10:50:51;;;;;;;56.53;13.78;;;;;;;9.72;49.79;99901.53;1828753;77;23405;-75
2021/03/18 10:53:35;;;;;;;44.65;14.20;;;;;;;9.71;49.80;99903.88;1814322;77;21222;-75
2021/03/18 10:56:14;;;;;;;50.12;13.45;;;;;;;9.76;49.69;99904.21;1775665;78;21252;-74
2021/03/18 10:58:51;;;;;;;45.52;12.78;;;;;;;9.79;49.39;99908.73;1800710;78;21217;-75
2021/03/18 11:01:29;;;;;;;41.30;12.28;;;;;;;9.82;49.07;99910.25;1797271;78;21228;-74
2021/03/18 11:04:11;;;;;;;48.20;11.80;;;;;;;9.81;49.20;99909.42;1774043;78;21180;-75
2021/03/18 11:07:04;;;;;;;62.50;13.32;;;;;;;9.82;49.06;99907.58;1803839;78;21101;-75
2021/03/18 11:09:49;;;;;;;45.05;10.78;;;;;;;9.84;48.75;99906.89;1782062;78;21141;-75
2021/03/18 11:25:53;;;;;;;44.30;12.30;;;;;;;9.84;48.21;99901.55;1831551;77;22726;-76
2021/03/18 11:28:32;;;;;;;43.30;12.20;;;;;;;10.04;47.64;99903.40;1771447;78;21566;-75
2021/03/18 11:31:15;;;;;;;38.92;10.48;;;;;;;10.09;47.34;99900.55;1797858;78;21164;-76
2021/03/18 11:33:48;;;;;;;33.30;10.43;;;;;;;10.13;47.21;99903.73;1769527;79;21139;-76
2021/03/18 11:36:23;;;;;;;42.43;10.00;;;;;;;10.13;46.86;99901.87;1802022;78;21582;-74
2021/03/18 11:39:01;;;;;;;27.02;8.40;;;;;;;10.15;46.66;99897.18;1770045;78;21096;-77
2021/03/18 11:41:37;;;;;;;36.25;8.13;;;;;;;10.15;46.59;99899.86;1704953;81;21114;-76
2021/03/18 11:44:17;;;;;;;30.82;7.83;;;;;;;10.16;46.48;99904.20;1704690;82;21168;-76
2021/03/18 11:46:53;;;;;;;35.78;7.78;;;;;;;10.18;46.42;99897.86;1767870;79;21169;-74
2021/03/18 11:49:27;;;;;;;31.15;7.37;;;;;;;10.16;46.12;99893.49;1742715;80;21164;-76
2021/03/18 11:52:00;;;;;;;27.10;7.90;;;;;;;10.16;46.02;99896.67;1744635;80;21142;-76
2021/03/18 11:54:34;;;;;;;29.57;7.62;;;;;;;10.14;45.65;99899.53;1730374;80;21133;-78
2021/03/18 11:57:07;;;;;;;26.42;7.25;;;;;;;10.14;45.75;99891.50;1769602;80;21188;-73
2021/03/18 11:59:44;;;;;;;41.37;7.35;;;;;;;10.12;45.48;99898.84;1738474;80;21156;-74
2021/03/18 12:02:18;;;;;;;33.58;9.33;;;;;;;10.11;45.47;99893.17;1769046;80;21116;-76
2021/03/18 12:04:57;;;;;;;28.73;7.65;;;;;;;10.08;45.66;99888.17;1741491;80;21158;-75
2021/03/18 12:07:33;;;;;;;33.50;8.53;;;;;;;10.11;46.00;99885.14;1763177;79;21070;-75
2021/03/18 12:10:08;;;;;;;30.00;8.60;;;;;;;10.14;45.87;99899.53;1732282;81;21398;-78
2021/03/18 12:12:43;;;;;;;28.30;8.25;;;;;;;10.15;45.77;99893.17;1766996;79;21584;-74
2021/03/18 12:15:20;;;;;;;29.77;7.87;;;;;;;10.21;45.84;99894.32;1759891;80;21149;-79
2021/03/18 12:17:56;;;;;;;29.52;8.20;;;;;;;10.24;45.96;99901.19;1707300;80;21172;-75